Wandering River, Canada
Current Conditions -  °F | °C
As of 6:00 AM on Saturday 25 Oct 2014 (Local Time) from CYZH Reporting Station
Clear Clear  
Wind Chill: 27°   Ceiling: Unl
Heat Index: 27°   Visibility: 9mi
Dew Point: 27°   Wind: 2mph
Humidity: 100%   Direction: 180°S
Pressure: 29.98"   Gusts: NA
Location:  55.2°N, 112.47°W
Report Text: CYZH 251200Z AUTO 18002KT 9SM CLR M03/M03 A2998 RMK SLP176
Loading
Personal Weather Stations






























Interactive Weather Map
Tropical Storm Tracking
New forecast layout! Learn more

10-Day Weather Forecast

Advertisements
Track Severe Weather on mobile